TimeCEST,TemperatureF,Dew PointF,Humidity,Sea Level PressureIn,VisibilityMPH,Wind Direction,Wind SpeedMPH,Gust SpeedMPH,PrecipitationIn,Events,Conditions,WindDirDegrees,DateUTC
5:50 AM,64.4,57.2,77,29.86,-9999.0,NE,6.9,-,N/A,,Clear,40,2012-10-14 03:50:00
6:50 AM,66.2,57.2,73,29.86,-9999.0,NE,8.1,-,N/A,,Clear,40,2012-10-14 04:50:00
7:50 AM,66.2,55.4,68,29.86,-9999.0,NE,8.1,-,N/A,,Clear,40,2012-10-14 05:50:00
8:50 AM,71.6,59.0,64,29.86,-9999.0,NNE,4.6,-,N/A,,Clear,30,2012-10-14 06:50:00
9:50 AM,73.4,59.0,61,29.86,-9999.0,North,6.9,-,N/A,,Clear,350,2012-10-14 07:50:00
10:50 AM,77.0,59.0,54,29.86,-9999.0,North,11.5,-,N/A,,Clear,350,2012-10-14 08:50:00
11:50 AM,78.8,57.2,47,29.86,6.2,NNW,12.7,-,N/A,,Partly Cloudy,340,2012-10-14 09:50:00
12:50 PM,78.8,59.0,51,29.83,6.2,NNW,13.8,-,N/A,,Partly Cloudy,340,2012-10-14 10:50:00
1:50 PM,78.8,57.2,47,29.80,6.2,NNW,15.0,-,N/A,,Partly Cloudy,340,2012-10-14 11:50:00
2:50 PM,78.8,53.6,42,29.80,6.2,North,17.3,-,N/A,,Partly Cloudy,350,2012-10-14 12:50:00
3:50 PM,78.8,55.4,44,29.80,-9999.0,North,12.7,-,N/A,,Clear,360,2012-10-14 13:50:00
4:50 PM,77.0,55.4,47,29.80,-9999.0,North,12.7,-,N/A,,Clear,350,2012-10-14 14:50:00
5:50 PM,75.2,55.4,50,29.80,6.2,North,12.7,-,N/A,,Scattered Clouds,360,2012-10-14 15:50:00
6:50 PM,75.2,55.4,50,29.80,6.2,North,5.8,-,N/A,,Scattered Clouds,360,2012-10-14 16:50:00
7:50 PM,73.4,59.0,61,29.83,6.2,NNW,6.9,-,N/A,Thunderstorm,Scattered Clouds,330,2012-10-14 17:50:00
8:50 PM,71.6,60.8,69,29.86,6.2,North,12.7,-,N/A,Thunderstorm,Scattered Clouds,10,2012-10-14 18:50:00
9:50 PM,69.8,59.0,68,29.86,6.2,North,15.0,-,N/A,,Scattered Clouds,360,2012-10-14 19:50:00
9:52 PM,69.8,59.0,68,29.86,6.2,North,13.8,-,N/A,Thunderstorm,Thunderstorm,360,2012-10-14 19:52:00
10:18 PM,69.8,59.0,68,29.86,6.2,North,11.5,-,N/A,,Scattered Clouds,360,2012-10-14 20:18:00
10:20 PM,69.8,60.8,73,29.86,-9999.0,North,11.5,-,N/A,,Clear,360,2012-10-14 20:20:00
10:50 PM,69.8,60.8,73,29.86,6.2,North,9.2,-,N/A,,Partly Cloudy,360,2012-10-14 20:50:00
11:50 PM,68.0,60.8,78,29.86,6.2,East,2.3,-,N/A,,Partly Cloudy,80,2012-10-14 21:50:00